Time,TemperatureF,DewpointF,PressureIn,WindDirection,WindDirectionDegrees,WindSpeedMPH,WindSpeedGustMPH,Humidity,HourlyPrecipIn,Conditions,Clouds,dailyrainin,SoftwareType,DateUTC
2013-04-26 00:58:00,38.6,30.4,30.55,West,273,0.0,0.0,72,0.00,CLR,,0.00,WeatherDisplay:10.37,2013-04-26 04:58:00,
2013-04-26 01:58:00,37.4,30.2,30.56,West,273,0.0,0.0,75,0.00,CLR,,0.00,WeatherDisplay:10.37,2013-04-26 05:58:00,
2013-04-26 02:58:00,36.4,31.4,30.56,West,273,0.0,0.0,82,0.00,CLR,,0.00,WeatherDisplay:10.37,2013-04-26 06:58:00,
2013-04-26 03:58:00,34.3,29.7,30.58,West,273,0.0,0.0,83,0.00,CLR,,0.00,WeatherDisplay:10.37,2013-04-26 07:58:00,
2013-04-26 04:57:00,33.5,29.7,30.60,West,273,0.0,0.0,86,0.00,CLR,,0.00,WeatherDisplay:10.37,2013-04-26 08:57:00,
2013-04-26 05:58:00,32.9,30.0,30.62,West,273,0.0,0.0,89,0.00,CLR,,0.00,WeatherDisplay:10.37,2013-04-26 09:58:00,
2013-04-26 06:58:00,34.5,31.3,30.66,West,273,0.0,0.0,88,0.00,CLR,,0.00,WeatherDisplay:10.37,2013-04-26 10:58:00,
2013-04-26 07:58:00,43.0,33.9,30.66,NNW,334,0.0,2.0,70,0.00,CLR,,0.00,WeatherDisplay:10.37,2013-04-26 11:58:00,
2013-04-26 08:58:00,52.7,34.6,30.67,North,7,0.0,6.0,50,0.00,CLR,,0.00,WeatherDisplay:10.37,2013-04-26 12:58:00,
2013-04-26 09:58:00,55.0,34.1,30.68,East,101,2.0,8.0,45,0.00,CLR,,0.00,WeatherDisplay:10.37,2013-04-26 13:58:00,
2013-04-26 10:58:00,55.9,35.4,30.69,NE,45,2.0,9.0,46,0.00,CLR,,0.00,WeatherDisplay:10.37,2013-04-26 14:58:00,
2013-04-26 11:58:00,57.2,35.5,30.69,East,79,2.0,9.0,44,0.00,CLR,,0.00,WeatherDisplay:10.37,2013-04-26 15:58:00,
2013-04-26 12:58:00,58.1,36.9,30.67,East,100,2.0,8.0,45,0.00,CLR,,0.00,WeatherDisplay:10.37,2013-04-26 16:58:00,
2013-04-26 13:58:00,57.9,37.2,30.66,East,89,2.0,9.0,46,0.00,CLR,,0.00,WeatherDisplay:10.37,2013-04-26 17:58:00,
2013-04-26 14:58:00,56.8,39.4,30.65,NE,54,2.0,10.0,52,0.00,CLR,,0.00,WeatherDisplay:10.37,2013-04-26 18:58:00,
2013-04-26 15:58:00,56.7,39.8,30.65,East,88,1.0,9.0,53,0.00,CLR,,0.00,WeatherDisplay:10.37,2013-04-26 19:58:00,
2013-04-26 16:58:00,54.2,39.3,30.65,ENE,70,0.0,7.0,57,0.00,CLR,,0.00,WeatherDisplay:10.37,2013-04-26 20:58:00,
2013-04-26 17:58:00,52.6,39.5,30.66,East,87,1.0,8.0,61,0.00,CLR,,0.00,WeatherDisplay:10.37,2013-04-26 21:58:00,
2013-04-26 18:58:00,50.1,39.6,30.66,East,93,0.0,5.0,67,0.00,CLR,,0.00,WeatherDisplay:10.37,2013-04-26 22:58:00,
2013-04-26 20:57:00,46.1,40.3,30.69,East,90,0.0,1.0,80,0.00,CLR,,0.00,WeatherDisplay:10.37,2013-04-27 00:57:00,
2013-04-26 21:58:00,44.3,40.1,30.69,East,90,0.0,0.0,85,0.00,CLR,,0.00,WeatherDisplay:10.37,2013-04-27 01:58:00,
2013-04-26 22:57:00,41.3,38.6,30.69,East,90,0.0,0.0,90,0.00,CLR,,0.00,WeatherDisplay:10.37,2013-04-27 02:57:00,
2013-04-26 23:58:00,39.1,37.3,30.69,East,90,0.0,0.0,93,0.00,CLR,,0.00,WeatherDisplay:10.37,2013-04-27 03:58:00,